Flight Track Log - Related Links

Times and Time Zones

All times are in EDT time to prevent confusion due to time zone crossing. See the UAL1024 flight status page for this flight to view local times or setup timezone preferences in your user account.

Time Position Orientation Groundspeed Altitude Reporting Facility
EDT Latitude Longitude Course Direction KTS MPH feet Rate Location/Type
01:19AM 38.8647 -115.9299 79° East  Level FlightAware Approximate
01:20AM 38.8868 -115.7709 80° East  Level FlightAware Approximate
01:21AM 38.9088 -115.6117 80° East  Level FlightAware Approximate
01:22AM 38.9305 -115.4524 80° East  Level FlightAware Approximate
01:23AM 38.9521 -115.2930 80° East  Level FlightAware Approximate
01:24AM 38.9734 -115.1336 80° East  Level FlightAware Approximate
01:25AM 38.9945 -114.9740 80° East  Level FlightAware Approximate
01:26AM 39.0153 -114.8143 80° East  Level FlightAware Approximate
01:27AM 39.0360 -114.6546 80° East  Level FlightAware Approximate
01:28AM 39.0564 -114.4947 81° East  Level FlightAware Approximate
01:29AM 39.0767 -114.3348 81° East  Level FlightAware Approximate
01:30AM 39.0967 -114.1748 81° East  Level FlightAware Approximate
01:31AM 39.1164 -114.0146 81° East  Level FlightAware Approximate
01:32AM 39.1360 -113.8544 81° East  Level FlightAware Approximate
01:33AM 39.1554 -113.6941 81° East  Level FlightAware Approximate
01:34AM 39.1745 -113.5337 81° East  Level FlightAware Approximate
01:35AM 39.1934 -113.3733 81° East  Level FlightAware Approximate
01:36AM 39.2130 -113.2129 81° East  Level FlightAware Approximate
01:37AM 39.2330 -113.0525 81° East  Level FlightAware Approximate
01:38AM 39.2527 -112.8921 81° East  Level FlightAware Approximate
01:39AM 39.2723 -112.7316 81° East  Level FlightAware Approximate
01:40AM 39.2915 -112.5710 81° East  Level FlightAware Approximate
01:41AM 39.3166 -112.4118 76° East  Level FlightAware Approximate
01:42AM 39.3462 -112.2537 76° East  Level FlightAware Approximate
01:43AM 39.3756 -112.0954 76° East  Level FlightAware Approximate
01:44AM 39.4048 -111.9371 77° East  Level FlightAware Approximate
01:45AM 39.4337 -111.7786 77° East  Level FlightAware Approximate
01:46AM 39.4632 -111.6162 77° East  Level FlightAware Approximate
01:47AM 39.4924 -111.4536 77° East  Level FlightAware Approximate
01:48AM 39.5213 -111.2909 77° East  Level FlightAware Approximate
01:49AM 39.5501 -111.1281 77° East  Level FlightAware Approximate
01:50AM 39.5786 -110.9651 77° East  Level FlightAware Approximate
01:51AM 39.6069 -110.8020 77° East  Level FlightAware Approximate
01:52AM 39.6349 -110.6387 77° East  Level FlightAware Approximate
01:53AM 39.6628 -110.4754 77° East  Level FlightAware Approximate
01:54AM 39.6904 -110.3119 78° East  Level FlightAware Approximate
01:55AM 39.7178 -110.1482 78° East  Level FlightAware Approximate
01:56AM 39.7449 -109.9845 78° East  Level FlightAware Approximate
01:57AM 39.7718 -109.8206 78° East  Level FlightAware Approximate
01:58AM 39.7985 -109.6566 78° East  Level FlightAware Approximate
01:59AM 39.8250 -109.4925 78° East  Level FlightAware Approximate
02:00AM 39.8513 -109.3282 78° East  Level FlightAware Approximate
02:01AM 39.8773 -109.1638 78° East  Level FlightAware Approximate
02:02AM 39.9031 -108.9993 78° East  Level FlightAware Approximate
02:03AM 39.9287 -108.8347 79° East  Level FlightAware Approximate
02:04AM 39.9540 -108.6699 79° East  Level FlightAware Approximate
02:05AM 39.9791 -108.5051 79° East  Level FlightAware Approximate
02:06AM 40.0040 -108.3401 79° East  Level FlightAware Approximate
02:07AM 40.0286 -108.1749 79° East  Level FlightAware Approximate
02:08AM 40.0530 -108.0097 79° East  Level FlightAware Approximate
02:09AM 40.0826 -107.8460 74° East  Level FlightAware Approximate
02:10AM 40.1187 -107.6844 74° East  Level FlightAware Approximate
02:11AM 40.1547 -107.5226 74° East  Level FlightAware Approximate
02:12AM 40.1904 -107.3606 74° East  Level FlightAware Approximate
02:13AM 40.2268 -107.1988 73° East  Level FlightAware Approximate
02:14AM 40.2634 -107.0369 73° East  Level FlightAware Approximate
02:15AM 40.2998 -106.8749 74° East  Level FlightAware Approximate
02:16AM 40.3359 -106.7128 74° East  Level FlightAware Approximate
02:17AM 40.3719 -106.5504 74° East  Level FlightAware Approximate
02:18AM 40.4076 -106.3879 74° East  Level FlightAware Approximate
02:19AM 40.4430 -106.2252 74° East  Level FlightAware Approximate
02:20AM 40.4782 -106.0623 74° East  Level FlightAware Approximate
02:21AM 40.5133 -105.8993 74° East  Level FlightAware Approximate
02:22AM 40.5466 -105.7355 75° East  Level FlightAware Approximate
02:23AM 40.5796 -105.5716 75° East  Level FlightAware Approximate
02:24AM 40.6123 -105.4075 75° East  Level FlightAware Approximate
02:25AM 40.6448 -105.2432 75° East  Level FlightAware Approximate
02:26AM 40.6792 -105.0796 74° East  Level FlightAware Approximate
02:27AM 40.7138 -104.9159 74° East  Level FlightAware Approximate
02:28AM 40.7482 -104.7521 74° East  Level FlightAware Approximate
02:29AM 40.7824 -104.5881 75° East  Level FlightAware Approximate
02:30AM 40.8137 -104.4230 76° East  Level FlightAware Approximate
02:31AM 40.8447 -104.2577 76° East  Level FlightAware Approximate
02:32AM 40.8754 -104.0923 76° East  Level FlightAware Approximate
02:33AM 40.9059 -103.9267 76° East  Level FlightAware Approximate
02:34AM 40.9362 -103.7610 76° East  Level FlightAware Approximate
02:35AM 40.9662 -103.5951 76° East  Level FlightAware Approximate
02:36AM 40.9967 -103.4293 76° East  Level FlightAware Approximate
02:37AM 41.0280 -103.2637 76° East  Level FlightAware Approximate
02:38AM 41.0592 -103.0967 76° East  Level FlightAware Approximate
02:39AM 41.0866 -102.9288 83° East  Level FlightAware Approximate
02:40AM 41.1012 -102.7578 83° East  Level FlightAware Approximate
02:41AM 41.1156 -102.5867 84° East  Level FlightAware Approximate
02:42AM 41.1297 -102.4155 84° East  Level FlightAware Approximate
02:43AM 41.1436 -102.2442 84° East  Level FlightAware Approximate
02:44AM 41.1572 -102.0729 84° East  Level FlightAware Approximate
02:45AM 41.1706 -101.9015 84° East  Level FlightAware Approximate
02:46AM 41.1837 -101.7301 84° East  Level FlightAware Approximate
02:47AM 41.1966 -101.5585 84° East  Level FlightAware Approximate
02:48AM 41.2092 -101.3869 84° East  Level FlightAware Approximate
02:49AM 41.2168 -101.2150 85° East  Level FlightAware Approximate
02:50AM 41.2274 -101.0431 85° East  Level FlightAware Approximate
02:51AM 41.2378 -100.8711 85° East  Level FlightAware Approximate
02:52AM 41.2479 -100.6992 85° East  Level FlightAware Approximate
02:53AM 41.2578 -100.5271 86° East  Level FlightAware Approximate
02:54AM 41.2674 -100.3550 86° East  Level FlightAware Approximate
02:55AM 41.2768 -100.1829 86° East  Level FlightAware Approximate
02:56AM 41.2859 -100.0107 86° East  Level FlightAware Approximate
02:57AM 41.2947 -99.8384 86° East  Level FlightAware Approximate
02:58AM 41.3033 -99.6661 86° East  Level FlightAware Approximate
02:59AM 41.3116 -99.4938 86° East  Level FlightAware Approximate
03:00AM 41.3197 -99.3214 86° East  Level FlightAware Approximate
03:01AM 41.3275 -99.1490 86° East  Level FlightAware Approximate
03:02AM 41.3354 -98.9766 86° East  Level FlightAware Approximate
03:03AM 41.3444 -98.8042 86° East  Level FlightAware Approximate
03:04AM 41.3531 -98.6318 86° East  Level FlightAware Approximate
03:05AM 41.3615 -98.4594 86° East  Level FlightAware Approximate
03:06AM 41.3686 -98.2868 88° East  Level FlightAware Approximate
03:07AM 41.3738 -98.1141 88° East  Level FlightAware Approximate
03:08AM 41.3788 -97.9413 88° East  Level FlightAware Approximate
03:09AM 41.3834 -97.7685 88° East  Level FlightAware Approximate
03:10AM 41.3879 -97.5957 88° East  Level FlightAware Approximate
03:11AM 41.3920 -97.4229 88° East  Level FlightAware Approximate
03:12AM 41.3959 -97.2501 88° East  Level FlightAware Approximate
03:13AM 41.3996 -97.0772 88° East  Level FlightAware Approximate
03:14AM 41.4030 -96.9043 88° East  Level FlightAware Approximate
03:15AM 41.4061 -96.7314 89° East  Level FlightAware Approximate
03:16AM 41.4090 -96.5585 89° East  Level FlightAware Approximate
03:17AM 41.4116 -96.3856 89° East  Level FlightAware Approximate
03:18AM 41.4139 -96.2127 89° East  Level FlightAware Approximate
03:19AM 41.4160 -96.0397 89° East  Level FlightAware Approximate
03:20AM 41.4186 -95.8668 89° East  Level FlightAware Approximate
03:21AM 41.4213 -95.6938 89° East  Level FlightAware Approximate
03:22AM 41.4237 -95.5209 89° East  Level FlightAware Approximate
03:23AM 41.4259 -95.3479 89° East  Level FlightAware Approximate
03:24AM 41.4278 -95.1749 89° East  Level FlightAware Approximate
03:25AM 41.4295 -95.0019 89° East  Level FlightAware Approximate
03:26AM 41.4308 -94.8289 89° East  Level FlightAware Approximate
03:27AM 41.4320 -94.6559 89° East  Level FlightAware Approximate
03:28AM 41.4328 -94.4829 90° East  Level FlightAware Approximate
03:29AM 41.4334 -94.3098 90° East  Level FlightAware Approximate
03:30AM 41.4338 -94.1368 90° East  Level FlightAware Approximate
03:31AM 41.4339 -93.9638 90° East  Level FlightAware Approximate
03:32AM 41.4337 -93.7908 90° East  Level FlightAware Approximate
03:33AM 41.4353 -93.6180 80° East  Level FlightAware Approximate
03:34AM 41.4549 -93.4469 83° East  Level FlightAware Approximate
03:35AM 41.4705 -93.2751 83° East  Level FlightAware Approximate
03:36AM 41.4858 -93.1031 83° East  Level FlightAware Approximate
03:37AM 41.5009 -92.9311 83° East  Level FlightAware Approximate
03:38AM 41.5157 -92.7590 83° East  Level FlightAware Approximate
03:39AM 41.5303 -92.5869 83° East  Level FlightAware Approximate
03:40AM 41.5446 -92.4146 84° East  Level FlightAware Approximate
03:41AM 41.5587 -92.2423 84° East  Level FlightAware Approximate
03:42AM 41.5725 -92.0699 84° East  Level FlightAware Approximate
03:43AM 41.5860 -91.8975 84° East  Level FlightAware Approximate
03:44AM 41.5993 -91.7249 84° East  Level FlightAware Approximate
03:45AM 41.6124 -91.5523 84° East  Level FlightAware Approximate
03:46AM 41.6251 -91.3796 84° East  Level FlightAware Approximate
03:47AM 41.6380 -91.2070 84° East  Level FlightAware Approximate
03:48AM 41.6515 -91.0343 84° East  Level FlightAware Approximate
03:49AM 41.6647 -90.8616 84° East  Level FlightAware Approximate
03:50AM 41.6776 -90.6888 84° East  Level FlightAware Approximate
03:51AM 41.6902 -90.5159 84° East  Level FlightAware Approximate
03:52AM 41.7026 -90.3430 84° East  Level FlightAware Approximate
03:53AM 41.7148 -90.1700 85° East  Level FlightAware Approximate
03:54AM 41.7267 -89.9969 85° East  Level FlightAware Approximate
03:55AM 41.7383 -89.8238 85° East  Level FlightAware Approximate
03:56AM 41.7497 -89.6506 85° East  Level FlightAware Approximate
03:57AM 41.7608 -89.4773 85° East  Level FlightAware Approximate
03:58AM 41.7716 -89.3040 85° East  Level FlightAware Approximate
03:59AM 41.7822 -89.1307 85° East  Level FlightAware Approximate
04:00AM 41.7925 -88.9572 85° East  Level FlightAware Approximate
04:01AM 41.8026 -88.7838 85° East  Level FlightAware Approximate
04:02AM 41.8124 -88.6102 86° East  Level FlightAware Approximate
04:03AM 41.8215 -88.4366 86° East  Level FlightAware Approximate
04:04AM 41.8299 -88.2629 86° East  Level FlightAware Approximate
04:05AM 41.8381 -88.0891 86° East  Level FlightAware Approximate
04:06AM 41.8460 -87.9153 86° East  Level FlightAware Approximate
04:07AM 41.8533 -87.7506 87° East  Level FlightAware Approximate
04:08AM 41.8603 -87.5858 87° East  Level FlightAware Approximate
04:09AM 41.8671 -87.4210 87° East  Level FlightAware Approximate
04:10AM 41.8736 -87.2561 87° East  Level FlightAware Approximate
04:11AM 41.8799 -87.0912 87° East  Level FlightAware Approximate
04:12AM 41.8866 -86.9264 87° East  Level FlightAware Approximate
04:13AM 41.8939 -86.7615 87° East  Level FlightAware Approximate
04:14AM 41.9008 -86.5966 87° East  Level FlightAware Approximate
04:15AM 41.9076 -86.4317 87° East  Level FlightAware Approximate
04:16AM 41.9141 -86.2667 87° East  Level FlightAware Approximate
04:17AM 41.9204 -86.1017 87° East  Level FlightAware Approximate
04:18AM 41.9264 -85.9367 87° East  Level FlightAware Approximate
04:19AM 41.9322 -85.7716 87° East  Level FlightAware Approximate
04:20AM 41.9378 -85.6065 87° East  Level FlightAware Approximate
04:21AM 41.9431 -85.4414 87° East  Level FlightAware Approximate
04:22AM 41.9482 -85.2762 88° East  Level FlightAware Approximate
04:23AM 41.9501 -85.1110 90° East  Level FlightAware Approximate
04:24AM 41.9500 -84.9457 90° East  Level FlightAware Approximate
04:25AM 41.9492 -84.7804 90° East  Level FlightAware Approximate
04:26AM 41.9480 -84.6151 91° East  Level FlightAware Approximate
04:27AM 41.9465 -84.4498 91° East  Level FlightAware Approximate
04:28AM 41.9449 -84.2846 91° East  Level FlightAware Approximate
04:29AM 41.9429 -84.1193 91° East  Level FlightAware Approximate
04:30AM 41.9408 -83.9541 91° East  Level FlightAware Approximate
04:31AM 41.9383 -83.7861 91° East  Level FlightAware Approximate
04:32AM 41.9357 -83.6181 91° East  Level FlightAware Approximate
04:33AM 41.9325 -83.4501 92° East  Level FlightAware Approximate
04:34AM 41.9281 -83.2823 92° East  Level FlightAware Approximate
04:35AM 41.9235 -83.1144 92° East  Level FlightAware Approximate
04:36AM 41.9186 -82.9465 92° East  Level FlightAware Approximate
04:37AM 41.9171 -82.7786 90° East  Level FlightAware Approximate
04:38AM 41.9176 -82.6107 90° East  Level FlightAware Approximate
04:39AM 41.9179 -82.4427 90° East  Level FlightAware Approximate
04:40AM 41.9179 -82.2748 90° East  Level FlightAware Approximate
04:41AM 41.9176 -82.1068 90° East  Level FlightAware Approximate
04:42AM 41.9172 -81.9389 90° East  Level FlightAware Approximate
04:43AM 41.9114 -81.7714 99° East  Level FlightAware Approximate
04:44AM 41.8922 -81.6055 99° East  Level FlightAware Approximate
04:45AM 41.8727 -81.4397 99° East  Level FlightAware Approximate
04:46AM 41.8529 -81.2740 99° East  Level FlightAware Approximate
04:47AM 41.8416 -81.1071 96° East  Level FlightAware Approximate
04:48AM 41.8286 -80.9403 96° East  Level FlightAware Approximate
04:49AM 41.8154 -80.7735 96° East  Level FlightAware Approximate
04:50AM 41.8019 -80.6068 96° East  Level FlightAware Approximate
04:51AM 41.7853 -80.4407 98° East  Level FlightAware Approximate
04:52AM 41.7678 -80.2725 98° East  Level FlightAware Approximate
04:53AM 41.7500 -80.1044 98° East  Level FlightAware Approximate
04:54AM 41.7320 -79.9363 98° East  Level FlightAware Approximate
04:55AM 41.7137 -79.7684 98° East  Level FlightAware Approximate
04:56AM 41.6952 -79.6006 98° East  Level FlightAware Approximate
04:57AM 41.6765 -79.4328 98° East  Level FlightAware Approximate
04:58AM 41.6575 -79.2652 99° East  Level FlightAware Approximate
04:59AM 41.6387 -79.0976 98° East  Level FlightAware Approximate
05:00AM 41.6199 -78.9300 98° East  Level FlightAware Approximate
05:01AM 41.6009 -78.7625 99° East  Level FlightAware Approximate
05:02AM 41.5817 -78.5951 99° East  Level FlightAware Approximate
05:03AM 41.5622 -78.4278 99° East  Level FlightAware Approximate
05:04AM 41.5425 -78.2606 99° East  Level FlightAware Approximate
05:05AM 41.5197 -78.0942 102° East  Level FlightAware Approximate
05:06AM 41.4955 -77.9282 99° East  Level FlightAware Approximate
05:07AM 41.4759 -77.7612 99° East  Level FlightAware Approximate
05:08AM 41.4542 -77.5947 101° East  Level FlightAware Approximate
05:09AM 41.4305 -77.4287 101° East  Level FlightAware Approximate
05:10AM 41.4067 -77.2628 101° East  Level FlightAware Approximate
05:11AM 41.3827 -77.0958 101° East  Level FlightAware Approximate
05:12AM 41.3578 -76.9292 101° East  Level FlightAware Approximate
05:13AM 41.3324 -76.7628 108° East  Level FlightAware Approximate
05:14AM 41.2882 -76.6039 118° Southeast  Level FlightAware Approximate
05:15AM 41.2389 -76.4479 110° East  Level FlightAware Approximate
05:16AM 41.2006 -76.2863 105° East  Level FlightAware Approximate
05:17AM 41.1560 -76.1292 111° Southeast  Level FlightAware Approximate
05:18AM 41.1140 -75.9704 112° Southeast  Level FlightAware Approximate
05:19AM 41.0659 -75.8137 108° East  Level FlightAware Approximate
05:20AM 41.0249 -75.6536 111° Southeast  Level FlightAware Approximate
05:21AM 40.9820 -75.4946 108° East  Level FlightAware Approximate
05:22AM 40.9390 -75.3392 118° Southeast  Level FlightAware Approximate
05:23AM 40.8993 -75.1816 118° Southeast  Level FlightAware Approximate
05:24AM 40.8486 -75.0275 108° East  Level FlightAware Approximate
05:25AM 40.8167 -74.8669 90° East  Level FlightAware Approximate
05:26AM 40.7844 -74.7041 108° East  Level FlightAware Approximate
05:27AM 40.7513 -74.5425 101° East  Level FlightAware Approximate
05:28AM 40.7215 -74.3812 114° Southeast  Level FlightAware Approximate
05:29AM 40.6919 -74.2178 102° East  Level FlightAware Approximate
05:30AM 40.6833 -74.1667 102° East  Level FlightAware Approximate
05:31AM 40.6925 -74.1687 102° East  Level Estimated
05:32AM 40.6925 -74.1687 102° East  Level Estimated
05:33AM 40.6925 -74.1687 102° East  Level Estimated
05:34AM 40.6925 -74.1687 102° East  Level Estimated
05:35AM 40.6925 -74.1687 102° East  Level Estimated
05:36AM 40.6925 -74.1687 102° East  Level Estimated
05:37AM 40.6925 -74.1687 102° East  Level Estimated
05:38AM 40.6925 -74.1687 102° East  Level Estimated
05:39AM 40.6925 -74.1687 102° East  Level Estimated

Login

Don't have an account? Register now (free) for customized features, flight alerts, and more!